Time;durP1;ratioP1;P1;durP2;ratioP2;P2;SDS_P1;SDS_P2;PMS_P1;PMS_P2;Temp;Humidity;BMP_temperature;BMP_pressure;BME280_temperature;BME280_humidity;BME280_pressure;Samples;Min_cycle;Max_cycle;Signal;HPM_P1;HPM_P2
2021/04/25 00:01:50;;;;;;;11.15;4.03;;;4.30;66.20;;;;;;5031814;28;20055;-75
2021/04/25 00:04:15;;;;;;;13.65;5.50;;;4.30;66.80;;;;;;5031960;28;20043;-75
2021/04/25 00:06:44;;;;;;;11.82;4.97;;;4.40;64.70;;;;;;5023781;28;20099;-75
2021/04/25 00:09:11;;;;;;;12.63;5.07;;;4.30;66.80;;;;;;5031857;28;20436;-75
2021/04/25 00:11:36;;;;;;;10.27;5.40;;;4.30;66.80;;;;;;5014411;28;20435;-75
2021/04/25 00:14:02;;;;;;;9.73;4.70;;;4.20;66.10;;;;;;5031811;28;20028;-75
2021/04/25 00:16:28;;;;;;;9.95;4.65;;;4.10;68.20;;;;;;5014732;28;20499;-76
2021/04/25 00:18:55;;;;;;;12.90;6.07;;;4.00;66.40;;;;;;5042325;28;20085;-75
2021/04/25 00:21:22;;;;;;;15.52;6.38;;;4.00;67.70;;;;;;5048162;28;20734;-75
2021/04/25 00:23:48;;;;;;;15.23;5.70;;;4.00;68.50;;;;;;5015223;28;20028;-75
2021/04/25 00:26:15;;;;;;;12.07;4.72;;;3.90;67.60;;;;;;5028801;28;20515;-75
2021/04/25 00:28:40;;;;;;;10.52;4.45;;;3.90;68.30;;;;;;5024408;28;20131;-75
2021/04/25 00:31:06;;;;;;;11.02;5.00;;;3.90;69.60;;;;;;5013214;28;20473;-75
2021/04/25 00:33:31;;;;;;;8.60;4.60;;;3.80;67.40;;;;;;5007857;28;20488;-75
2021/04/25 00:35:57;;;;;;;18.92;6.07;;;3.70;69.30;;;;;;5065516;28;20037;-75
2021/04/25 00:38:22;;;;;;;13.95;6.05;;;3.80;69.40;;;;;;5046725;28;20025;-75
2021/04/25 00:40:48;;;;;;;16.95;5.57;;;3.70;69.40;;;;;;5027735;28;20033;-75
2021/04/25 00:43:13;;;;;;;11.77;5.57;;;3.60;70.40;;;;;;5024485;28;20024;-75
2021/04/25 00:45:39;;;;;;;11.77;5.10;;;3.50;71.20;;;;;;5046508;28;20032;-75
2021/04/25 00:48:05;;;;;;;13.30;5.95;;;3.50;70.00;;;;;;5018198;28;20082;-77
2021/04/25 00:50:30;;;;;;;11.60;4.75;;;3.50;73.30;;;;;;5054862;28;20032;-77
2021/04/25 00:52:56;;;;;;;17.52;6.38;;;3.40;73.50;;;;;;5017550;28;20446;-77
2021/04/25 00:55:24;;;;;;;14.60;6.05;;;3.40;73.50;;;;;;5034830;28;20035;-77
2021/04/25 00:57:50;;;;;;;18.20;8.02;;;3.40;73.20;;;;;;5030241;28;20032;-77
2021/04/25 01:00:16;;;;;;;13.02;6.22;;;3.30;75.10;;;;;;5042331;28;20040;-77
2021/04/25 01:02:42;;;;;;;13.65;6.53;;;3.30;74.60;;;;;;5049468;28;20025;-77
2021/04/25 01:05:09;;;;;;;18.90;6.25;;;3.40;73.20;;;;;;5027055;28;20036;-77
2021/04/25 01:07:35;;;;;;;12.20;6.40;;;3.40;74.50;;;;;;5046778;28;20025;-77
2021/04/25 01:10:01;;;;;;;12.57;5.78;;;3.20;74.70;;;;;;5027210;28;20032;-77
2021/04/25 01:12:26;;;;;;;11.50;6.05;;;3.10;75.30;;;;;;5018338;28;20403;-77
2021/04/25 01:14:52;;;;;;;12.88;5.75;;;3.10;75.10;;;;;;5043497;28;20448;-77
2021/04/25 01:17:17;;;;;;;11.60;5.47;;;3.10;76.00;;;;;;5050674;28;20059;-77
2021/04/25 01:19:43;;;;;;;13.85;5.88;;;3.00;77.00;;;;;;5028097;28;20423;-76
2021/04/25 01:22:09;;;;;;;11.77;5.85;;;2.90;76.70;;;;;;5016261;28;20048;-76
2021/04/25 01:24:34;;;;;;;10.00;5.10;;;2.90;77.80;;;;;;5035156;28;20024;-77
2021/04/25 01:27:00;;;;;;;12.20;5.80;;;2.90;78.50;;;;;;5026521;28;20032;-77
2021/04/25 01:29:25;;;;;;;10.88;5.38;;;2.90;77.40;;;;;;5018462;28;20036;-77
2021/04/25 01:31:51;;;;;;;17.90;5.35;;;2.70;78.80;;;;;;5018820;28;20033;-77
2021/04/25 01:34:16;;;;;;;11.40;6.07;;;2.80;79.40;;;;;;5043557;28;20387;-77
2021/04/25 01:36:42;;;;;;;13.88;5.63;;;2.90;78.50;;;;;;5018528;28;20036;-76
2021/04/25 01:39:08;;;;;;;11.52;5.50;;;2.70;78.70;;;;;;5034398;28;20059;-77
2021/04/25 01:41:33;;;;;;;11.82;5.68;;;2.60;78.30;;;;;;5017037;28;20042;-77
2021/04/25 01:43:59;;;;;;;13.45;6.07;;;2.60;78.80;;;;;;5047389;28;20036;-77
2021/04/25 01:46:25;;;;;;;14.18;6.30;;;2.50;80.40;;;;;;5029405;28;20129;-77
2021/04/25 01:48:50;;;;;;;13.25;5.97;;;2.40;78.90;;;;;;5009500;28;20032;-76
2021/04/25 01:51:16;;;;;;;13.95;7.10;;;2.40;80.60;;;;;;5035945;28;20119;-77
2021/04/25 01:53:42;;;;;;;20.83;6.63;;;2.40;80.40;;;;;;5032378;28;20043;-77
2021/04/25 01:56:08;;;;;;;14.15;6.80;;;2.40;82.00;;;;;;5044387;28;20040;-77
2021/04/25 01:58:33;;;;;;;13.32;5.78;;;2.40;82.10;;;;;;5017996;28;20024;-76
2021/04/25 02:00:59;;;;;;;12.32;6.45;;;2.50;82.40;;;;;;5015195;28;20111;-76
2021/04/25 02:03:25;;;;;;;14.25;6.28;;;2.50;81.00;;;;;;5045702;28;20033;-77
2021/04/25 02:05:50;;;;;;;13.65;6.38;;;2.40;81.90;;;;;;5066526;28;20124;-77
2021/04/25 02:08:16;;;;;;;14.43;6.45;;;2.40;82.90;;;;;;5031473;28;20037;-76
2021/04/25 02:10:42;;;;;;;13.80;6.25;;;2.40;82.30;;;;;;5023414;28;20423;-77
2021/04/25 02:13:07;;;;;;;12.00;6.53;;;2.40;84.10;;;;;;5027814;28;20567;-75
2021/04/25 02:15:33;;;;;;;17.35;5.95;;;2.40;84.00;;;;;;5028009;28;20068;-74
2021/04/25 02:17:59;;;;;;;13.43;5.93;;;2.50;83.60;;;;;;5043832;28;20033;-74
2021/04/25 02:20:24;;;;;;;13.45;5.55;;;2.50;83.40;;;;;;5033344;28;20041;-74
2021/04/25 02:22:51;;;;;;;12.98;6.25;;;2.50;84.00;;;;;;5026190;28;20548;-75
2021/04/25 02:25:17;;;;;;;12.23;5.80;;;2.50;83.20;;;;;;5016387;28;20036;-75
2021/04/25 02:27:42;;;;;;;14.07;6.10;;;2.50;84.40;;;;;;5039533;28;20025;-74
2021/04/25 02:30:10;;;;;;;18.13;8.60;;;2.50;85.30;;;;;;5031375;28;20063;-75
2021/04/25 02:32:35;;;;;;;13.27;6.38;;;2.50;85.30;;;;;;5041631;28;20349;-75
2021/04/25 02:35:01;;;;;;;14.00;6.07;;;2.60;84.30;;;;;;5033861;28;20079;-74
2021/04/25 02:37:26;;;;;;;16.52;6.60;;;2.60;84.90;;;;;;5016810;28;20036;-74
2021/04/25 02:39:52;;;;;;;15.75;5.55;;;2.70;84.60;;;;;;5046639;28;20429;-76
2021/04/25 02:42:17;;;;;;;13.30;5.82;;;2.70;85.90;;;;;;5033956;28;20387;-74
2021/04/25 02:44:43;;;;;;;15.30;6.50;;;2.70;85.60;;;;;;5029839;28;20086;-74
2021/04/25 02:47:09;;;;;;;16.95;5.68;;;2.70;86.10;;;;;;5026179;28;20040;-74
2021/04/25 02:49:34;;;;;;;14.30;6.55;;;2.90;84.20;;;;;;5042388;28;20028;-75
2021/04/25 02:52:00;;;;;;;14.38;5.80;;;2.90;85.50;;;;;;5043599;28;20043;-75
2021/04/25 02:54:25;;;;;;;12.50;6.13;;;2.90;84.30;;;;;;5040893;28;20056;-74
2021/04/25 02:56:51;;;;;;;16.00;6.75;;;2.90;85.40;;;;;;5010574;28;20119;-74
2021/04/25 02:59:16;;;;;;;12.85;6.68;;;2.80;84.40;;;;;;5031645;28;20040;-75
2021/04/25 03:01:42;;;;;;;17.08;5.97;;;2.90;86.10;;;;;;5030511;28;20032;-73
2021/04/25 03:04:07;;;;;;;18.92;6.97;;;2.90;86.60;;;;;;5044435;28;20029;-74
2021/04/25 03:06:33;;;;;;;13.00;6.20;;;3.00;85.60;;;;;;5040747;28;20033;-74
2021/04/25 03:08:58;;;;;;;14.10;6.63;;;3.00;85.60;;;;;;5024119;28;20516;-74
2021/04/25 03:11:24;;;;;;;14.82;7.20;;;3.10;85.90;;;;;;5014321;28;20035;-74
2021/04/25 03:13:49;;;;;;;14.25;6.68;;;3.00;86.50;;;;;;5047932;28;20032;-75
2021/04/25 03:16:15;;;;;;;13.48;6.32;;;3.10;85.90;;;;;;5044455;28;20487;-75
2021/04/25 03:18:41;;;;;;;16.05;6.90;;;3.20;85.10;;;;;;5025091;28;20035;-74
2021/04/25 03:21:06;;;;;;;13.73;7.00;;;3.20;85.40;;;;;;5029032;28;20032;-75
2021/04/25 03:23:32;;;;;;;17.02;7.28;;;3.10;86.10;;;;;;5015679;28;20024;-74
2021/04/25 03:25:57;;;;;;;15.07;6.63;;;3.10;85.80;;;;;;5046507;28;20116;-75
2021/04/25 03:28:23;;;;;;;13.10;6.05;;;3.20;84.80;;;;;;5043025;28;20063;-74
2021/04/25 03:30:48;;;;;;;11.52;6.20;;;3.20;86.40;;;;;;5026276;28;20260;-74
2021/04/25 03:33:14;;;;;;;13.05;6.13;;;3.20;85.80;;;;;;5043316;28;20039;-74
2021/04/25 03:35:40;;;;;;;15.35;6.35;;;3.20;86.10;;;;;;5025807;28;20027;-75
2021/04/25 03:38:05;;;;;;;16.35;6.32;;;3.20;85.30;;;;;;5015809;28;20032;-75
2021/04/25 03:40:31;;;;;;;13.77;6.07;;;3.30;85.80;;;;;;5030554;28;20032;-74
2021/04/25 03:42:56;;;;;;;15.98;7.32;;;3.30;86.00;;;;;;5046123;28;20033;-75
2021/04/25 03:45:22;;;;;;;13.88;6.30;;;3.30;86.00;;;;;;5048651;28;20382;-74
2021/04/25 03:47:50;;;;;;;14.55;6.65;;;3.30;86.90;;;;;;5046488;28;20028;-75
2021/04/25 03:50:16;;;;;;;14.05;7.07;;;3.30;86.00;;;;;;5030779;28;20069;-74
2021/04/25 03:52:43;;;;;;;12.98;7.75;;;3.40;85.70;;;;;;5028590;28;20043;-75
2021/04/25 03:55:09;;;;;;;14.43;6.38;;;3.30;85.50;;;;;;5028395;28;20036;-74
2021/04/25 03:57:34;;;;;;;18.60;6.93;;;3.30;86.00;;;;;;5024327;28;20041;-75
2021/04/25 04:00:00;;;;;;;15.90;6.88;;;3.30;86.40;;;;;;5042795;28;20392;-74
2021/04/25 04:02:26;;;;;;;14.60;6.70;;;3.40;86.00;;;;;;5041618;28;20497;-74
2021/04/25 04:04:51;;;;;;;16.90;7.05;;;3.40;85.90;;;;;;5025745;28;20029;-74
2021/04/25 04:07:17;;;;;;;20.38;7.70;;;3.40;85.10;;;;;;5015691;28;20028;-73
2021/04/25 04:09:42;;;;;;;18.30;6.75;;;3.40;85.90;;;;;;5031738;28;20492;-75
2021/04/25 04:12:08;;;;;;;16.33;6.82;;;3.40;85.70;;;;;;5046274;28;20461;-75
2021/04/25 04:14:34;;;;;;;14.90;8.07;;;3.40;85.90;;;;;;5045454;28;20388;-74
2021/04/25 04:16:59;;;;;;;18.67;7.68;;;3.40;85.70;;;;;;5033002;28;20047;-74
2021/04/25 04:19:25;;;;;;;13.88;6.82;;;3.40;85.10;;;;;;5041334;28;20553;-75
2021/04/25 04:21:50;;;;;;;15.02;7.07;;;3.40;85.90;;;;;;5014166;28;20441;-75
2021/04/25 04:24:16;;;;;;;13.07;6.50;;;3.50;85.90;;;;;;5027610;28;20657;-74
2021/04/25 04:26:42;;;;;;;15.98;8.07;;;3.40;85.30;;;;;;5024123;28;20518;-75
2021/04/25 04:29:07;;;;;;;15.65;7.20;;;3.50;85.70;;;;;;5066644;28;20033;-74
2021/04/25 04:31:33;;;;;;;17.05;8.20;;;3.50;85.50;;;;;;5030118;28;20032;-75
2021/04/25 04:33:58;;;;;;;15.57;7.43;;;3.50;85.20;;;;;;5035162;28;20664;-74
2021/04/25 04:36:24;;;;;;;17.35;8.13;;;3.50;86.40;;;;;;5024744;28;20028;-75
2021/04/25 04:38:50;;;;;;;20.45;7.50;;;3.50;86.70;;;;;;5028892;28;20086;-75
2021/04/25 04:41:15;;;;;;;18.08;6.85;;;3.50;86.10;;;;;;5041808;28;20379;-76
2021/04/25 04:43:41;;;;;;;21.65;7.90;;;3.50;86.60;;;;;;5026070;28;20021;-75
2021/04/25 04:46:06;;;;;;;19.13;7.40;;;3.60;86.00;;;;;;5040201;28;20028;-74
2021/04/25 04:48:32;;;;;;;16.98;7.20;;;3.60;86.40;;;;;;5014529;28;20067;-75
2021/04/25 04:50:57;;;;;;;14.68;7.00;;;3.60;86.50;;;;;;5025663;28;20028;-75
2021/04/25 04:53:23;;;;;;;15.95;8.65;;;3.60;85.50;;;;;;5024240;28;20459;-74
2021/04/25 04:55:48;;;;;;;15.18;7.25;;;3.60;86.00;;;;;;5015489;28;20514;-74
2021/04/25 04:58:14;;;;;;;14.02;6.85;;;3.70;86.30;;;;;;5027819;28;20048;-74
2021/04/25 05:00:39;;;;;;;15.13;6.80;;;3.80;86.40;;;;;;5012472;28;20024;-75
2021/04/25 05:03:05;;;;;;;16.48;7.40;;;3.90;86.00;;;;;;5012512;28;20136;-74
2021/04/25 05:05:30;;;;;;;14.55;6.50;;;3.90;86.00;;;;;;5044264;28;20109;-74
2021/04/25 05:07:56;;;;;;;12.10;6.25;;;3.90;85.50;;;;;;5065693;28;20025;-75
2021/04/25 05:10:22;;;;;;;17.38;6.82;;;4.00;84.50;;;;;;5043359;28;20451;-74
2021/04/25 05:12:47;;;;;;;17.75;7.20;;;4.00;85.10;;;;;;5047418;28;20024;-74
2021/04/25 05:15:13;;;;;;;14.65;6.47;;;4.00;85.10;;;;;;5027583;28;20436;-74
2021/04/25 05:17:38;;;;;;;11.35;5.97;;;4.10;84.50;;;;;;5065810;28;20115;-74
2021/04/25 05:20:04;;;;;;;12.48;6.00;;;4.10;84.20;;;;;;5014741;28;20502;-77
2021/04/25 05:22:30;;;;;;;11.48;5.72;;;4.20;82.80;;;;;;5014327;28;20041;-76
2021/04/25 05:24:55;;;;;;;8.57;5.80;;;4.30;82.80;;;;;;5013942;28;21008;-76
2021/04/25 05:27:21;;;;;;;11.80;4.78;;;4.30;82.90;;;;;;5030026;28;20028;-76
2021/04/25 05:29:47;;;;;;;10.50;4.55;;;4.20;82.40;;;;;;5015835;28;20028;-77
2021/04/25 05:32:13;;;;;;;9.18;4.57;;;4.30;82.30;;;;;;5016622;28;20057;-76
2021/04/25 05:34:38;;;;;;;5.43;3.28;;;4.40;81.10;;;;;;5017928;28;20036;-77
2021/04/25 05:37:04;;;;;;;9.93;4.40;;;4.50;81.30;;;;;;5036166;28;20040;-77
2021/04/25 05:39:30;;;;;;;10.63;4.38;;;4.50;81.30;;;;;;5024776;28;20419;-78
2021/04/25 05:41:55;;;;;;;8.15;3.88;;;4.50;80.50;;;;;;5050564;28;20024;-76
2021/04/25 05:44:21;;;;;;;7.50;4.80;;;4.60;80.20;;;;;;5050666;28;20465;-76
2021/04/25 05:46:46;;;;;;;9.57;4.43;;;4.70;79.40;;;;;;5026725;28;20108;-76
2021/04/25 05:49:12;;;;;;;12.35;3.90;;;4.70;79.40;;;;;;5032996;28;20479;-76
2021/04/25 05:51:37;;;;;;;8.95;4.18;;;4.70;79.80;;;;;;5024702;28;20028;-76
2021/04/25 05:54:03;;;;;;;7.88;3.92;;;4.90;79.30;;;;;;5026951;28;20046;-76
2021/04/25 05:56:30;;;;;;;9.45;4.22;;;4.90;78.90;;;;;;5011351;28;20036;-76
2021/04/25 05:58:56;;;;;;;7.43;4.40;;;4.90;78.50;;;;;;5034303;28;20048;-75
2021/04/25 06:01:21;;;;;;;8.32;4.47;;;5.10;78.70;;;;;;5032736;28;20066;-76
2021/04/25 06:03:47;;;;;;;11.73;4.13;;;5.10;78.50;;;;;;5025820;28;20112;-76
2021/04/25 06:06:12;;;;;;;10.65;4.15;;;5.20;78.80;;;;;;5026289;28;20158;-76
2021/04/25 06:08:38;;;;;;;10.80;4.50;;;5.30;78.40;;;;;;5049207;28;20032;-76
2021/04/25 06:11:03;;;;;;;13.18;5.22;;;5.30;78.20;;;;;;5036769;28;20045;-76
2021/04/25 06:13:29;;;;;;;12.98;4.72;;;5.40;77.60;;;;;;5050691;28;20025;-77
2021/04/25 06:15:55;;;;;;;10.73;5.35;;;5.50;77.50;;;;;;5025586;28;20476;-76
2021/04/25 06:18:20;;;;;;;11.05;4.93;;;5.50;77.20;;;;;;5027214;28;20055;-77
2021/04/25 06:20:46;;;;;;;9.35;4.97;;;5.60;77.00;;;;;;5026317;28;20025;-76
2021/04/25 06:23:13;;;;;;;13.23;6.03;;;5.70;76.70;;;;;;5042989;28;20040;-77
2021/04/25 06:25:39;;;;;;;13.73;5.50;;;5.70;76.10;;;;;;5025406;28;20053;-77
2021/04/25 06:28:04;;;;;;;16.95;5.95;;;5.80;76.00;;;;;;5026896;28;20024;-77
2021/04/25 06:30:30;;;;;;;10.18;4.90;;;5.80;75.90;;;;;;5028596;28;20017;-78
2021/04/25 06:32:55;;;;;;;8.65;5.03;;;5.90;75.70;;;;;;5009435;28;20024;-78
2021/04/25 06:35:21;;;;;;;9.77;5.65;;;6.00;74.50;;;;;;5050518;28;20025;-80
2021/04/25 06:37:47;;;;;;;11.02;5.13;;;6.10;75.40;;;;;;5026464;28;20078;-78
2021/04/25 06:40:13;;;;;;;8.52;5.15;;;6.20;75.30;;;;;;5032373;28;20043;-78
2021/04/25 06:42:39;;;;;;;8.02;4.68;;;6.20;74.90;;;;;;5015425;28;20509;-78
2021/04/25 06:45:10;;;;;;;14.70;5.18;;;6.30;74.80;;;;;;5031319;28;20408;-77
2021/04/25 06:47:35;;;;;;;10.80;5.53;;;6.40;74.60;;;;;;5034076;28;20035;-78
2021/04/25 06:50:01;;;;;;;9.68;5.78;;;6.40;74.30;;;;;;5023938;28;20500;-78
2021/04/25 06:52:27;;;;;;;10.80;5.15;;;6.50;74.40;;;;;;5014308;28;20029;-77
2021/04/25 06:54:52;;;;;;;11.73;5.60;;;6.70;74.50;;;;;;5026232;28;20036;-77
2021/04/25 06:57:18;;;;;;;7.57;4.30;;;6.70;73.80;;;;;;5033239;28;20036;-78
2021/04/25 06:59:43;;;;;;;11.48;6.80;;;6.80;73.80;;;;;;5025582;28;20037;-78
2021/04/25 07:02:09;;;;;;;11.00;5.85;;;6.90;73.50;;;;;;5041855;28;20035;-77
2021/04/25 07:04:34;;;;;;;9.70;5.18;;;7.00;73.50;;;;;;5030259;28;20587;-77
2021/04/25 07:07:00;;;;;;;12.95;8.80;;;7.10;73.50;;;;;;5025675;28;20032;-78
2021/04/25 07:09:25;;;;;;;13.70;7.00;;;7.20;72.50;;;;;;5048276;28;20086;-78
2021/04/25 07:11:51;;;;;;;14.30;8.45;;;7.20;71.90;;;;;;5025570;28;20083;-78
2021/04/25 07:14:17;;;;;;;9.70;5.75;;;7.30;71.40;;;;;;5025964;28;20037;-78
2021/04/25 07:16:42;;;;;;;9.75;4.90;;;7.40;71.20;;;;;;5029930;28;20373;-77
2021/04/25 07:19:08;;;;;;;11.63;5.47;;;7.50;70.70;;;;;;5029276;28;20036;-77
2021/04/25 07:21:33;;;;;;;11.05;5.05;;;7.60;71.50;;;;;;5012516;28;20029;-78
2021/04/25 07:23:59;;;;;;;12.20;5.30;;;7.70;70.80;;;;;;5030723;28;20029;-78
2021/04/25 07:26:24;;;;;;;12.38;5.28;;;7.90;70.00;;;;;;5028496;28;20408;-78
2021/04/25 07:28:50;;;;;;;9.35;4.78;;;7.90;69.80;;;;;;5031502;28;20119;-78
2021/04/25 07:31:16;;;;;;;13.73;4.72;;;8.00;70.30;;;;;;5014438;28;20028;-78
2021/04/25 07:33:41;;;;;;;7.50;3.40;;;8.20;69.50;;;;;;5027684;28;20021;-78
2021/04/25 07:36:08;;;;;;;11.77;5.35;;;8.40;68.70;;;;;;5025335;28;20037;-78
2021/04/25 07:38:38;;;;;;;8.63;3.88;;;8.50;68.10;;;;;;5047884;28;20280;-77
2021/04/25 07:41:04;;;;;;;5.85;3.95;;;8.60;65.80;;;;;;5019431;28;20446;-77
2021/04/25 07:43:30;;;;;;;12.43;4.43;;;8.70;64.80;;;;;;5026520;28;20043;-78
2021/04/25 07:45:56;;;;;;;7.57;4.07;;;8.80;65.70;;;;;;5028354;28;20479;-78
2021/04/25 07:48:21;;;;;;;7.38;3.50;;;8.90;65.40;;;;;;5029797;28;20119;-78
2021/04/25 07:50:47;;;;;;;9.18;3.38;;;9.00;66.00;;;;;;5011077;28;20032;-78
2021/04/25 07:53:15;;;;;;;7.28;3.10;;;9.10;66.30;;;;;;5046269;28;20831;-78
2021/04/25 07:55:41;;;;;;;7.82;3.20;;;9.40;66.10;;;;;;5024048;28;20037;-78
2021/04/25 07:58:07;;;;;;;7.00;3.13;;;9.60;65.70;;;;;;5043174;28;20442;-78
2021/04/25 08:00:32;;;;;;;9.07;2.83;;;9.80;66.20;;;;;;5040821;28;20345;-78
2021/04/25 08:02:58;;;;;;;6.60;3.13;;;10.00;63.60;;;;;;5026305;28;20036;-79
2021/04/25 08:05:23;;;;;;;6.57;3.08;;;10.30;65.00;;;;;;5029697;28;20029;-78
2021/04/25 08:07:51;;;;;;;5.88;3.35;;;10.70;63.40;;;;;;5025177;28;20040;-78
2021/04/25 08:10:16;;;;;;;9.30;3.28;;;10.80;62.60;;;;;;5041632;28;20033;-78
2021/04/25 08:12:42;;;;;;;6.97;3.15;;;10.80;61.70;;;;;;5015508;28;20373;-77
2021/04/25 08:15:08;;;;;;;7.38;3.08;;;10.80;59.60;;;;;;5032133;28;20479;-78
2021/04/25 08:17:33;;;;;;;9.48;3.40;;;10.80;59.30;;;;;;5032553;28;20043;-78
2021/04/25 08:19:59;;;;;;;7.22;3.10;;;10.90;59.80;;;;;;5016267;28;20115;-79
2021/04/25 08:22:25;;;;;;;7.13;2.85;;;11.00;59.90;;;;;;5027885;28;20081;-77
2021/04/25 08:24:50;;;;;;;8.10;3.42;;;11.00;59.70;;;;;;5028011;28;20036;-78
2021/04/25 08:27:16;;;;;;;7.13;3.03;;;11.00;58.50;;;;;;5017317;28;20111;-78
2021/04/25 08:29:41;;;;;;;5.07;2.58;;;10.90;57.90;;;;;;5025881;28;20411;-78
2021/04/25 08:32:07;;;;;;;5.93;3.00;;;10.80;58.30;;;;;;5018306;28;20059;-78
2021/04/25 08:34:32;;;;;;;4.80;3.38;;;10.70;58.70;;;;;;5033574;28;20024;-79
2021/04/25 08:36:58;;;;;;;9.15;3.65;;;10.70;58.70;;;;;;5050493;28;20381;-78
2021/04/25 08:39:23;;;;;;;4.93;3.40;;;10.50;57.40;;;;;;5025214;28;20032;-79
2021/04/25 08:41:49;;;;;;;7.28;3.78;;;10.50;57.00;;;;;;5031822;28;20040;-78
2021/04/25 08:44:19;;;;;;;4.78;2.80;;;10.60;57.80;;;;;;5031841;28;20036;-78
2021/04/25 08:46:49;;;;;;;8.65;3.60;;;10.70;57.80;;;;;;5024732;28;20037;-78
2021/04/25 08:49:18;;;;;;;6.20;2.80;;;10.80;58.20;;;;;;5042292;28;20115;-78
2021/04/25 08:51:44;;;;;;;5.68;3.13;;;11.00;58.00;;;;;;5023423;28;20317;-79
2021/04/25 08:54:12;;;;;;;7.90;2.28;;;11.10;57.30;;;;;;5028287;28;20119;-78
2021/04/25 08:56:37;;;;;;;4.32;2.55;;;11.40;55.70;;;;;;5028459;28;20484;-79
2021/04/25 08:59:03;;;;;;;4.97;3.00;;;11.60;54.50;;;;;;5027566;28;20048;-78
2021/04/25 09:01:28;;;;;;;10.80;3.60;;;11.70;55.10;;;;;;5016528;28;20534;-79
2021/04/25 09:03:54;;;;;;;8.63;3.88;;;11.60;53.20;;;;;;5014476;28;20029;-78
2021/04/25 09:06:19;;;;;;;5.13;3.08;;;11.50;53.40;;;;;;5050121;28;20016;-78
2021/04/25 09:08:47;;;;;;;7.45;3.40;;;11.50;53.70;;;;;;5019509;28;20025;-79
2021/04/25 09:11:25;;;;;;;9.15;2.42;;;11.50;54.50;;;;;;5018620;28;20039;-78
2021/04/25 09:14:15;;;;;;;6.47;2.72;;;11.50;55.40;;;;;;5051601;28;20025;-79
2021/04/25 09:16:41;;;;;;;6.70;2.20;;;11.60;54.20;;;;;;5021936;28;20028;-79
2021/04/25 09:19:06;;;;;;;4.80;2.35;;;11.70;54.30;;;;;;5032593;28;20032;-79
2021/04/25 09:21:32;;;;;;;6.55;2.78;;;11.80;52.60;;;;;;5019845;28;20387;-79
2021/04/25 09:24:17;;;;;;;6.95;2.95;;;11.90;54.00;;;;;;5018912;28;20288;-79
2021/04/25 09:26:43;;;;;;;4.67;2.80;;;12.00;54.80;;;;;;5048470;28;20544;-79
2021/04/25 09:29:09;;;;;;;8.07;3.20;;;12.20;55.40;;;;;;5018924;28;20024;-79
2021/04/25 09:31:39;;;;;;;7.60;3.53;;;12.40;53.50;;;;;;5031371;28;20484;-79
2021/04/25 09:34:05;;;;;;;9.38;3.20;;;12.50;52.70;;;;;;5035877;28;20465;-79
2021/04/25 09:36:31;;;;;;;5.18;3.40;;;12.50;53.90;;;;;;5034279;28;20290;-79
2021/04/25 09:39:11;;;;;;;7.40;2.90;;;12.60;54.40;;;;;;5046115;28;20069;-79
2021/04/25 09:41:36;;;;;;;6.22;2.58;;;12.80;53.20;;;;;;5050444;28;20476;-79
2021/04/25 09:44:02;;;;;;;6.00;2.88;;;12.90;53.90;;;;;;5045556;28;20024;-79
2021/04/25 09:46:56;;;;;;;8.48;3.20;;;13.10;52.00;;;;;;5024442;28;20028;-80
2021/04/25 09:49:44;;;;;;;6.40;2.42;;;13.30;51.60;;;;;;5035417;28;20035;-79
2021/04/25 09:52:13;;;;;;;6.18;2.53;;;13.60;50.50;;;;;;5053801;28;20496;-78
2021/04/25 09:54:39;;;;;;;6.43;2.20;;;13.60;49.50;;;;;;5020323;28;20086;-79
2021/04/25 09:57:05;;;;;;;4.15;2.47;;;13.60;51.10;;;;;;5015978;28;20123;-79
2021/04/25 09:59:30;;;;;;;8.77;3.55;;;13.70;51.10;;;;;;5028045;28;20076;-79
2021/04/25 10:02:06;;;;;;;4.95;2.70;;;13.70;50.20;;;;;;5038478;28;20025;-78
2021/04/25 10:04:38;;;;;;;5.03;1.83;;;13.90;52.00;;;;;;5011591;28;20139;-78
2021/04/25 10:07:08;;;;;;;6.05;2.75;;;14.00;50.10;;;;;;5048462;28;20036;-79
2021/04/25 10:09:35;;;;;;;6.75;3.00;;;14.70;52.50;;;;;;5012690;28;20028;-77
2021/04/25 10:12:02;;;;;;;4.90;2.65;;;14.50;48.70;;;;;;5031741;28;20427;-78
2021/04/25 10:14:35;;;;;;;6.68;2.42;;;14.40;48.30;;;;;;5011185;28;20025;-78
2021/04/25 10:17:02;;;;;;;5.78;2.63;;;14.50;49.80;;;;;;5009859;28;20458;-78
2021/04/25 10:19:27;;;;;;;4.03;2.13;;;14.60;49.70;;;;;;5021070;28;20033;-79
2021/04/25 10:21:53;;;;;;;8.05;3.30;;;14.70;49.40;;;;;;5053700;28;20090;-79
2021/04/25 10:24:20;;;;;;;7.07;2.58;;;14.80;48.90;;;;;;5035620;28;20078;-78
2021/04/25 10:27:09;;;;;;;6.35;2.40;;;15.00;49.00;;;;;;5009690;28;20029;-77
2021/04/25 10:29:57;;;;;;;5.10;2.35;;;15.40;48.00;;;;;;5019445;28;20534;-78
2021/04/25 10:32:23;;;;;;;3.40;2.38;;;15.60;48.00;;;;;;5035426;28;20116;-78
2021/04/25 10:35:19;;;;;;;6.18;2.70;;;15.60;48.00;;;;;;5012727;28;20036;-78
2021/04/25 10:37:51;;;;;;;5.73;2.47;;;15.70;46.30;;;;;;5025452;28;20032;-78
2021/04/25 10:40:24;;;;;;;3.97;2.42;;;15.70;47.10;;;;;;5027091;28;20085;-78
2021/04/25 10:43:14;;;;;;;6.68;2.50;;;15.70;46.40;;;;;;5034985;28;20033;-78
2021/04/25 10:46:01;;;;;;;10.00;2.35;;;15.80;46.50;;;;;;5049535;28;20039;-78
2021/04/25 10:48:31;;;;;;;4.75;2.45;;;16.00;46.60;;;;;;5028801;28;20024;-78
2021/04/25 10:51:13;;;;;;;6.95;2.72;;;16.20;47.00;;;;;;5040485;28;20028;-78
2021/04/25 10:53:46;;;;;;;7.38;2.35;;;16.30;43.20;;;;;;5019453;28;20037;-78
2021/04/25 10:56:20;;;;;;;7.55;2.47;;;16.30;45.80;;;;;;5048029;28;20096;-78
2021/04/25 10:58:47;;;;;;;4.10;2.60;;;16.60;44.40;;;;;;5045618;28;20104;-78
2021/04/25 11:01:44;;;;;;;7.32;2.50;;;16.50;44.90;;;;;;5017036;28;20480;-78
2021/04/25 11:04:10;;;;;;;8.82;2.83;;;16.50;45.10;;;;;;5036888;28;20071;-79
2021/04/25 11:06:36;;;;;;;5.57;2.22;;;16.50;46.40;;;;;;5037288;28;20056;-78
2021/04/25 11:09:02;;;;;;;4.85;2.08;;;16.60;44.50;;;;;;5025196;28;20056;-78
2021/04/25 11:11:55;;;;;;;8.75;2.47;;;16.60;43.50;;;;;;5006558;28;20082;-80
2021/04/25 11:14:37;;;;;;;9.27;3.25;;;16.80;45.20;;;;;;5026066;28;20063;-78
2021/04/25 11:17:32;;;;;;;6.35;2.35;;;16.70;42.60;;;;;;5036219;28;20043;-80
2021/04/25 11:19:57;;;;;;;8.23;2.40;;;16.80;46.10;;;;;;5050179;28;20402;-79
2021/04/25 11:22:43;;;;;;;4.93;2.33;;;16.80;41.30;;;;;;5024325;28;20063;-78
2021/04/25 11:25:31;;;;;;;8.07;2.85;;;16.80;42.50;;;;;;4682451;28;9999733;-79
2021/04/25 11:27:57;;;;;;;3.38;2.15;;;16.60;41.60;;;;;;5032687;28;20044;-78
2021/04/25 11:30:40;;;;;;;5.53;2.78;;;16.80;44.70;;;;;;5052236;28;20032;-79
2021/04/25 11:33:34;;;;;;;5.13;2.53;;;16.90;42.50;;;;;;5015414;28;20079;-78
2021/04/25 11:36:35;;;;;;;6.75;2.25;;;16.60;43.30;;;;;;5034585;28;20110;-78
2021/04/25 11:39:01;;;;;;;7.05;2.40;;;16.70;42.40;;;;;;4988671;28;20031;-78
2021/04/25 11:41:26;;;;;;;7.38;2.67;;;16.40;41.00;;;;;;5047133;28;20431;-78
2021/04/25 11:43:52;;;;;;;5.47;2.40;;;16.40;41.20;;;;;;5033028;28;20036;-78
2021/04/25 11:46:29;;;;;;;8.48;2.55;;;16.80;42.90;;;;;;5048595;28;20521;-78
2021/04/25 11:49:00;;;;;;;6.50;2.10;;;17.20;42.40;;;;;;5032551;28;20110;-77
2021/04/25 11:51:26;;;;;;;6.93;2.88;;;17.10;42.30;;;;;;5033096;28;20032;-78
2021/04/25 11:53:52;;;;;;;4.57;2.20;;;17.00;43.10;;;;;;5017223;28;20071;-78
2021/04/25 11:56:24;;;;;;;5.10;2.70;;;16.70;41.50;;;;;;5055159;28;20471;-77
2021/04/25 11:58:49;;;;;;;8.05;2.53;;;16.70;42.80;;;;;;5031827;28;20029;-78
2021/04/25 12:01:22;;;;;;;5.10;2.60;;;16.70;42.60;;;;;;5020897;28;20024;-77
2021/04/25 12:03:49;;;;;;;7.68;3.60;;;16.80;41.30;;;;;;5023665;28;20136;-77
2021/04/25 12:06:14;;;;;;;6.97;2.90;;;16.60;41.60;;;;;;5019197;28;20395;-78
2021/04/25 12:08:50;;;;;;;5.65;2.70;;;16.70;42.30;;;;;;5055306;28;20024;-77
2021/04/25 12:11:25;;;;;;;7.45;3.08;;;17.10;44.40;;;;;;5045497;28;20039;-77
2021/04/25 12:13:54;;;;;;;5.38;2.25;;;17.30;42.10;;;;;;5032887;28;20025;-77
2021/04/25 12:16:21;;;;;;;9.35;2.92;;;17.80;43.10;;;;;;5029509;28;20036;-77
2021/04/25 12:18:46;;;;;;;7.45;2.95;;;17.30;41.60;;;;;;5023493;28;20028;-77
2021/04/25 12:21:20;;;;;;;7.07;3.00;;;16.80;39.60;;;;;;5049859;28;20480;-77
2021/04/25 12:23:51;;;;;;;6.28;2.67;;;16.70;41.30;;;;;;5033624;28;20031;-77
2021/04/25 12:26:18;;;;;;;7.57;3.35;;;16.90;42.20;;;;;;5017841;28;20463;-76
2021/04/25 12:28:45;;;;;;;8.27;3.47;;;16.90;41.70;;;;;;5028878;28;20028;-77
2021/04/25 12:31:12;;;;;;;8.88;2.88;;;17.10;41.00;;;;;;5030859;28;20041;-77
2021/04/25 12:33:53;;;;;;;5.90;2.72;;;16.90;41.10;;;;;;5047439;28;20148;-77
2021/04/25 12:36:20;;;;;;;6.68;3.20;;;16.90;40.70;;;;;;5044204;28;20492;-77
2021/04/25 12:38:56;;;;;;;5.70;2.97;;;17.00;40.90;;;;;;5020457;28;20491;-77
2021/04/25 12:41:24;;;;;;;5.10;2.17;;;17.30;42.00;;;;;;5030973;28;20033;-77
2021/04/25 12:43:50;;;;;;;8.05;2.80;;;17.90;44.20;;;;;;5039954;28;20449;-77
2021/04/25 12:46:17;;;;;;;7.07;2.88;;;17.70;40.20;;;;;;5057554;28;20517;-76
2021/04/25 12:48:52;;;;;;;7.07;2.42;;;17.70;41.20;;;;;;5038112;28;20399;-76
2021/04/25 12:51:30;;;;;;;8.38;2.50;;;17.40;41.10;;;;;;5051097;28;20028;-76